createdAt,value
2018-03-14T00:00:48.248Z,8.62
2018-03-14T00:03:15.648Z,8.46
2018-03-14T00:05:43.052Z,8.35
2018-03-14T00:08:10.476Z,8.30
2018-03-14T00:10:37.996Z,8.26
2018-03-14T00:13:06.210Z,8.25
2018-03-14T00:15:33.600Z,8.33
2018-03-14T00:18:01.009Z,8.30
2018-03-14T00:20:28.407Z,8.26
2018-03-14T00:22:55.808Z,8.29
2018-03-14T00:27:44.281Z,8.10
2018-03-14T00:30:11.789Z,8.02
2018-03-14T00:32:39.185Z,7.99
2018-03-14T00:35:06.596Z,7.99
2018-03-14T00:37:34.640Z,8.01
2018-03-14T00:40:02.032Z,8.09
2018-03-14T00:42:29.467Z,8.10
2018-03-14T00:44:56.864Z,8.06
2018-03-14T00:47:24.260Z,8.02
2018-03-14T00:49:52.384Z,7.94
2018-03-14T00:52:19.806Z,7.88
2018-03-14T00:54:47.214Z,7.85
2018-03-14T00:57:14.607Z,7.85
2018-03-14T00:59:42.018Z,7.86
2018-03-14T01:02:09.441Z,7.89
2018-03-14T01:04:36.863Z,7.91
2018-03-14T01:07:04.272Z,7.93
2018-03-14T01:09:31.687Z,7.96
2018-03-14T01:11:59.089Z,7.99
2018-03-14T01:14:26.488Z,8.08
2018-03-14T01:16:53.887Z,8.08
2018-03-14T01:19:21.325Z,8.11
2018-03-14T01:21:48.831Z,8.12
2018-03-14T01:24:16.308Z,8.15
2018-03-14T01:26:43.705Z,8.19
2018-03-14T01:29:11.156Z,8.23
2018-03-14T01:31:38.575Z,8.26
2018-03-14T01:34:05.999Z,8.25
2018-03-14T01:36:33.414Z,8.23
2018-03-14T01:39:01.299Z,8.24
2018-03-14T01:41:28.722Z,8.25
2018-03-14T01:43:56.131Z,8.23
2018-03-14T01:46:23.708Z,8.17
2018-03-14T01:48:51.099Z,8.08
2018-03-14T01:51:18.751Z,7.96
2018-03-14T01:53:46.190Z,7.87
2018-03-14T01:56:13.603Z,7.82
2018-03-14T01:58:41.027Z,7.64
2018-03-14T02:01:08.484Z,7.58
2018-03-14T02:03:35.917Z,7.57
2018-03-14T02:06:03.339Z,7.57
2018-03-14T02:08:30.905Z,7.54
2018-03-14T02:10:58.415Z,7.46
2018-03-14T02:13:25.845Z,7.46
2018-03-14T02:15:54.052Z,7.41
2018-03-14T02:18:21.518Z,7.35
2018-03-14T02:20:48.950Z,7.32
2018-03-14T02:23:16.350Z,7.27
2018-03-14T02:25:44.688Z,7.22
2018-03-14T02:28:12.188Z,7.15
2018-03-14T02:30:39.628Z,6.99
2018-03-14T02:33:07.098Z,6.98
2018-03-14T02:35:34.532Z,7.03
2018-03-14T02:38:01.979Z,7.03
2018-03-14T02:40:29.838Z,6.96
2018-03-14T02:42:57.244Z,6.88
2018-03-14T02:45:25.618Z,6.74
2018-03-14T02:47:53.037Z,6.69
2018-03-14T02:50:20.650Z,6.69
2018-03-14T02:52:48.130Z,6.75
2018-03-14T02:55:15.703Z,6.79
2018-03-14T02:57:43.153Z,6.76
2018-03-14T03:00:10.600Z,6.66
2018-03-14T03:02:38.016Z,6.57
2018-03-14T03:05:05.478Z,6.58
2018-03-14T03:07:32.927Z,6.56
2018-03-14T03:10:00.357Z,6.56
2018-03-14T03:12:28.819Z,6.58
2018-03-14T03:14:56.324Z,6.59
2018-03-14T03:17:23.793Z,6.61
2018-03-14T03:19:51.345Z,6.62
2018-03-14T03:22:18.769Z,6.61
2018-03-14T03:24:46.201Z,6.61
2018-03-14T03:27:13.656Z,6.66
2018-03-14T03:29:41.073Z,6.75
2018-03-14T03:32:08.513Z,6.74
2018-03-14T03:34:35.942Z,6.64
2018-03-14T03:37:03.366Z,6.60
2018-03-14T03:39:30.754Z,6.43
2018-03-14T03:41:58.207Z,6.26
2018-03-14T03:44:25.678Z,6.16
2018-03-14T03:46:53.106Z,6.09
2018-03-14T03:49:20.576Z,6.05
2018-03-14T03:51:48.001Z,5.99
2018-03-14T03:54:15.569Z,5.99
2018-03-14T03:56:43.030Z,6.00
2018-03-14T03:59:10.501Z,5.99
2018-03-14T04:01:37.986Z,6.02
2018-03-14T04:04:05.422Z,6.04
2018-03-14T04:06:32.947Z,6.03
2018-03-14T04:09:00.649Z,5.99
2018-03-14T04:11:28.072Z,5.95
2018-03-14T04:13:56.128Z,5.90
2018-03-14T04:16:23.586Z,5.91
2018-03-14T04:18:50.971Z,5.81
2018-03-14T04:21:18.532Z,5.77
2018-03-14T04:23:45.990Z,5.79
2018-03-14T04:26:13.413Z,5.85
2018-03-14T04:28:40.950Z,5.95
2018-03-14T04:31:08.364Z,6.00
2018-03-14T04:33:35.803Z,6.05
2018-03-14T04:36:03.238Z,6.10
2018-03-14T04:38:30.668Z,6.13
2018-03-14T04:40:58.125Z,6.17
2018-03-14T04:43:25.721Z,6.22
2018-03-14T04:45:53.148Z,6.25
2018-03-14T04:48:20.565Z,6.24
2018-03-14T04:50:47.995Z,6.22
2018-03-14T04:53:15.422Z,6.33
2018-03-14T04:55:42.845Z,6.28
2018-03-14T04:58:11.145Z,6.19
2018-03-14T05:00:38.577Z,6.15
2018-03-14T05:03:06.063Z,6.21
2018-03-14T05:05:33.496Z,6.35
2018-03-14T05:08:00.902Z,6.35
2018-03-14T05:10:28.328Z,6.28
2018-03-14T05:12:55.763Z,6.25
2018-03-14T05:15:23.434Z,6.19
2018-03-14T05:17:50.865Z,6.16
2018-03-14T05:20:18.260Z,6.13
2018-03-14T05:22:46.491Z,6.07
2018-03-14T05:25:13.922Z,6.03
2018-03-14T05:27:41.346Z,6.02
2018-03-14T05:30:08.804Z,6.03
2018-03-14T05:32:36.252Z,6.11
2018-03-14T05:35:03.709Z,6.15
2018-03-14T05:37:31.249Z,6.17
2018-03-14T05:39:58.715Z,6.17
2018-03-14T05:42:26.192Z,6.26
2018-03-14T05:44:53.617Z,6.31
2018-03-14T05:47:21.017Z,6.36
2018-03-14T05:49:48.685Z,6.39
2018-03-14T05:52:16.111Z,6.37
2018-03-14T05:54:43.530Z,6.36
2018-03-14T05:57:11.007Z,6.37
2018-03-14T05:59:39.137Z,6.39
2018-03-14T06:02:06.561Z,6.38
2018-03-14T06:04:34.758Z,6.38
2018-03-14T06:07:02.204Z,6.41
2018-03-14T06:09:29.632Z,6.51
2018-03-14T06:11:57.981Z,6.53
2018-03-14T06:14:25.442Z,6.62
2018-03-14T06:16:52.935Z,6.69
2018-03-14T06:19:20.912Z,6.74
2018-03-14T06:21:48.310Z,6.69
2018-03-14T06:24:15.770Z,6.65
2018-03-14T06:26:43.238Z,6.67
2018-03-14T06:29:10.669Z,6.70
2018-03-14T06:31:38.106Z,6.69
2018-03-14T06:34:05.537Z,6.64
2018-03-14T06:36:33.018Z,6.70
2018-03-14T06:39:00.441Z,6.75
2018-03-14T06:41:27.918Z,6.74
2018-03-14T06:43:55.437Z,6.76
2018-03-14T06:46:22.926Z,6.89
2018-03-14T06:48:50.792Z,6.94
2018-03-14T06:51:18.231Z,7.01
2018-03-14T06:53:45.801Z,7.07
2018-03-14T06:56:13.280Z,7.08
2018-03-14T06:58:52.454Z,7.17
2018-03-14T07:01:32.661Z,7.30
2018-03-14T07:04:12.018Z,7.37
2018-03-14T07:06:39.437Z,7.43
2018-03-14T07:09:06.873Z,7.55
2018-03-14T07:11:34.390Z,7.69
2018-03-14T07:14:01.829Z,7.78
2018-03-14T07:16:29.291Z,7.96
2018-03-14T07:18:56.770Z,8.09
2018-03-14T07:21:24.785Z,8.16
2018-03-14T07:23:52.244Z,8.29
2018-03-14T07:26:19.636Z,8.37
2018-03-14T07:28:47.105Z,8.26
2018-03-14T07:31:14.551Z,8.29
2018-03-14T07:33:42.014Z,8.74
2018-03-14T07:36:09.474Z,8.74
2018-03-14T07:38:36.911Z,8.48
2018-03-14T07:41:04.487Z,8.20
2018-03-14T07:43:31.946Z,7.97
2018-03-14T07:45:59.396Z,7.80
2018-03-14T07:48:26.858Z,8.01
2018-03-14T07:50:54.334Z,7.98
2018-03-14T07:53:21.810Z,7.97
2018-03-14T07:55:49.246Z,7.95
2018-03-14T07:58:16.697Z,8.17
2018-03-14T08:00:44.247Z,8.61
2018-03-14T08:03:11.761Z,9.10
2018-03-14T08:05:39.247Z,9.88
2018-03-14T08:08:06.690Z,10.22
2018-03-14T08:10:34.082Z,9.90
2018-03-14T08:13:01.979Z,9.49
2018-03-14T08:15:29.468Z,9.13
2018-03-14T08:17:56.905Z,9.03
2018-03-14T08:20:24.342Z,9.04
2018-03-14T08:22:51.805Z,9.07
2018-03-14T08:25:19.230Z,9.12
2018-03-14T08:27:46.820Z,9.10
2018-03-14T08:30:14.283Z,9.12
2018-03-14T08:32:41.729Z,9.02
2018-03-14T08:35:09.315Z,9.01
2018-03-14T08:37:36.811Z,9.03
2018-03-14T08:40:04.426Z,8.89
2018-03-14T08:42:31.936Z,8.88
2018-03-14T08:44:59.353Z,8.87
2018-03-14T08:47:26.793Z,8.98
2018-03-14T08:49:54.485Z,8.98
2018-03-14T08:52:21.922Z,9.05
2018-03-14T08:54:49.451Z,9.26
2018-03-14T08:57:17.029Z,9.51
2018-03-14T08:59:44.476Z,10.00
2018-03-14T09:02:12.240Z,11.83
2018-03-14T09:04:39.732Z,11.84
2018-03-14T09:07:07.193Z,11.23
2018-03-14T09:09:34.649Z,11.62
2018-03-14T09:12:02.102Z,11.31
2018-03-14T09:14:29.568Z,10.89
2018-03-14T09:16:57.019Z,10.69
2018-03-14T09:19:24.725Z,10.53
2018-03-14T09:21:52.197Z,10.79
2018-03-14T09:24:19.653Z,10.74
2018-03-14T09:26:48.752Z,11.08
2018-03-14T09:29:16.270Z,11.19
2018-03-14T09:31:43.900Z,11.57
2018-03-14T09:34:11.437Z,12.17
2018-03-14T09:36:38.865Z,12.45
2018-03-14T09:39:06.289Z,12.99
2018-03-14T09:41:33.733Z,13.23
2018-03-14T09:44:01.199Z,13.09
2018-03-14T09:46:28.603Z,12.96
2018-03-14T09:48:56.090Z,13.43
2018-03-14T09:51:23.618Z,14.01
2018-03-14T09:53:51.367Z,14.68
2018-03-14T09:56:18.892Z,15.01
2018-03-14T09:58:46.287Z,15.62
2018-03-14T10:01:13.734Z,15.83
2018-03-14T10:03:41.338Z,15.70
2018-03-14T10:06:08.802Z,15.17
2018-03-14T10:08:36.245Z,15.37
2018-03-14T10:11:03.745Z,15.78
2018-03-14T10:13:31.178Z,15.82
2018-03-14T10:15:58.687Z,15.99
2018-03-14T10:18:26.133Z,16.24
2018-03-14T10:20:53.520Z,16.43
2018-03-14T10:23:20.953Z,16.42
2018-03-14T10:25:48.476Z,16.08
2018-03-14T10:28:15.788Z,15.25
2018-03-14T10:30:43.223Z,14.97
2018-03-14T10:33:10.665Z,14.88
2018-03-14T10:35:38.279Z,15.21
2018-03-14T10:38:05.731Z,15.48
2018-03-14T10:40:33.128Z,15.26
2018-03-14T10:43:00.755Z,15.09
2018-03-14T10:45:28.265Z,15.08
2018-03-14T10:47:55.921Z,14.79
2018-03-14T10:50:23.409Z,15.01
2018-03-14T10:52:51.759Z,15.36
2018-03-14T10:55:19.212Z,15.35
2018-03-14T10:57:46.664Z,15.84
2018-03-14T11:00:19.610Z,16.10
2018-03-14T11:02:53.109Z,16.03
2018-03-14T11:05:20.562Z,15.66
2018-03-14T11:07:48.168Z,15.44
2018-03-14T11:10:15.571Z,15.47
2018-03-14T11:12:43.056Z,15.57
2018-03-14T11:15:10.808Z,15.32
2018-03-14T11:17:38.252Z,15.40
2018-03-14T11:20:05.795Z,15.42
2018-03-14T11:22:33.411Z,15.38
2018-03-14T11:25:00.817Z,15.44
2018-03-14T11:27:28.250Z,15.39
2018-03-14T11:29:55.648Z,15.27
2018-03-14T11:32:23.152Z,15.29
2018-03-14T11:34:50.631Z,15.52
2018-03-14T11:37:18.066Z,15.43
2018-03-14T11:39:46.096Z,15.45
2018-03-14T11:42:13.574Z,15.63
2018-03-14T11:44:41.022Z,15.73
2018-03-14T11:47:08.436Z,15.73
2018-03-14T11:49:35.910Z,16.13
2018-03-14T11:52:03.380Z,16.78
2018-03-14T11:54:31.474Z,16.93
2018-03-14T11:56:58.915Z,16.75
2018-03-14T11:59:26.387Z,16.39
2018-03-14T12:01:53.897Z,16.44
2018-03-14T12:04:21.590Z,16.58
2018-03-14T12:06:49.315Z,16.11
2018-03-14T12:09:16.809Z,16.15
2018-03-14T12:11:44.243Z,16.42
2018-03-14T12:14:11.696Z,16.71
2018-03-14T12:16:39.162Z,16.71
2018-03-14T12:19:06.568Z,16.85
2018-03-14T12:21:35.041Z,17.53
2018-03-14T12:24:02.525Z,17.60
2018-03-14T12:26:31.070Z,17.21
2018-03-14T12:28:58.486Z,17.09
2018-03-14T12:31:25.945Z,16.70
2018-03-14T12:33:53.378Z,16.45
2018-03-14T12:36:20.835Z,16.24
2018-03-14T12:38:48.296Z,16.19
2018-03-14T12:41:15.729Z,16.13
2018-03-14T12:43:43.169Z,16.11
2018-03-14T12:46:10.656Z,16.17
2018-03-14T12:48:38.088Z,16.00
2018-03-14T12:51:05.597Z,15.94
2018-03-14T12:53:33.090Z,15.91
2018-03-14T12:56:00.528Z,15.95
2018-03-14T12:58:28.052Z,15.94
2018-03-14T13:00:55.541Z,15.95
2018-03-14T13:03:23.016Z,16.09
2018-03-14T13:05:50.672Z,16.16
2018-03-14T13:08:18.212Z,16.18
2018-03-14T13:10:45.697Z,16.25
2018-03-14T13:13:13.108Z,16.14
2018-03-14T13:15:40.628Z,16.13
2018-03-14T13:18:08.276Z,16.03
2018-03-14T13:20:35.726Z,16.04
2018-03-14T13:23:03.273Z,16.37
2018-03-14T13:25:30.695Z,16.84
2018-03-14T13:27:58.228Z,16.88
2018-03-14T13:30:25.840Z,16.77
2018-03-14T13:32:53.462Z,16.63
2018-03-14T13:35:21.021Z,16.61
2018-03-14T13:37:48.514Z,16.53
2018-03-14T13:40:16.037Z,16.79
2018-03-14T13:42:43.532Z,16.67
2018-03-14T13:45:10.994Z,16.62
2018-03-14T13:47:38.453Z,17.01
2018-03-14T13:50:05.887Z,16.83
2018-03-14T13:52:33.855Z,16.93
2018-03-14T13:55:01.299Z,16.77
2018-03-14T13:57:28.789Z,16.59
2018-03-14T13:59:56.491Z,16.56
2018-03-14T14:02:24.259Z,16.59
2018-03-14T14:04:51.875Z,16.56
2018-03-14T14:09:53.043Z,16.53
2018-03-14T14:12:20.500Z,16.56
2018-03-14T14:14:48.059Z,16.48
2018-03-14T14:17:15.561Z,16.70
2018-03-14T14:19:43.083Z,17.17
2018-03-14T14:22:10.792Z,17.29
2018-03-14T14:24:38.296Z,17.40
2018-03-14T14:27:06.040Z,17.75
2018-03-14T14:29:33.507Z,17.86
2018-03-14T14:32:00.948Z,17.32
2018-03-14T14:34:28.364Z,17.24
2018-03-14T14:36:56.263Z,17.66
2018-03-14T14:39:23.723Z,17.42
2018-03-14T14:41:51.199Z,17.34
2018-03-14T14:44:18.674Z,17.10
2018-03-14T14:46:46.163Z,16.88
2018-03-14T14:49:13.583Z,16.61
2018-03-14T14:51:41.066Z,16.60
2018-03-14T14:54:08.618Z,17.31
2018-03-14T14:56:36.022Z,17.38
2018-03-14T14:59:03.478Z,17.53
2018-03-14T15:01:31.142Z,17.29
2018-03-14T15:03:58.639Z,17.19
2018-03-14T15:06:26.116Z,16.79
2018-03-14T15:08:54.085Z,16.74
2018-03-14T15:11:21.844Z,16.78
2018-03-14T15:13:49.305Z,17.17
2018-03-14T15:16:16.807Z,17.06
2018-03-14T15:18:44.377Z,16.65
2018-03-14T15:21:11.899Z,16.53
2018-03-14T15:23:39.335Z,16.51
2018-03-14T15:26:06.884Z,16.57
2018-03-14T15:28:34.304Z,16.55
2018-03-14T15:31:01.781Z,16.34
2018-03-14T15:33:29.217Z,16.57
2018-03-14T15:35:56.784Z,16.51
2018-03-14T15:38:24.375Z,16.39
2018-03-14T15:40:51.914Z,16.33
2018-03-14T15:43:19.386Z,16.32
2018-03-14T15:45:46.886Z,16.08
2018-03-14T15:48:14.318Z,16.23
2018-03-14T15:50:41.727Z,16.29
2018-03-14T15:53:09.189Z,16.26
2018-03-14T15:55:36.607Z,16.48
2018-03-14T15:58:04.216Z,16.93
2018-03-14T16:00:31.624Z,16.98
2018-03-14T16:02:59.085Z,16.62
2018-03-14T16:05:26.557Z,16.36
2018-03-14T16:07:53.988Z,16.28
2018-03-14T16:10:21.839Z,16.66
2018-03-14T16:12:49.329Z,16.69
2018-03-14T16:15:16.793Z,16.65
2018-03-14T16:17:44.258Z,16.23
2018-03-14T16:20:11.802Z,16.32
2018-03-14T16:22:39.246Z,16.19
2018-03-14T16:25:06.733Z,15.88
2018-03-14T16:27:34.355Z,15.58
2018-03-14T16:30:01.846Z,15.48
2018-03-14T16:32:29.436Z,15.31
2018-03-14T16:34:57.014Z,15.32
2018-03-14T16:37:24.471Z,15.37
2018-03-14T16:39:51.868Z,15.70
2018-03-14T16:42:20.539Z,15.59
2018-03-14T16:44:48.487Z,15.54
2018-03-14T16:47:15.928Z,15.38
2018-03-14T16:49:43.454Z,15.15
2018-03-14T16:52:11.204Z,15.09
2018-03-14T16:54:38.649Z,15.24
2018-03-14T16:57:06.469Z,15.08
2018-03-14T16:59:34.331Z,14.92
2018-03-14T17:02:01.965Z,14.92
2018-03-14T17:04:29.463Z,14.93
2018-03-14T17:06:56.868Z,14.99
2018-03-14T17:09:24.807Z,14.99
2018-03-14T17:11:52.221Z,14.60
2018-03-14T17:14:27.135Z,14.13
2018-03-14T17:16:47.113Z,13.85
2018-03-14T17:19:14.594Z,13.71
2018-03-14T17:21:42.004Z,13.50
2018-03-14T17:24:09.442Z,13.34
2018-03-14T17:26:37.025Z,13.26
2018-03-14T17:29:04.460Z,13.16
2018-03-14T17:31:31.898Z,13.17
2018-03-14T17:33:59.286Z,13.17
2018-03-14T17:36:26.850Z,13.09
2018-03-14T17:38:54.357Z,12.98
2018-03-14T17:41:21.838Z,12.89
2018-03-14T17:43:49.346Z,12.80
2018-03-14T17:46:16.808Z,12.76
2018-03-14T17:48:44.303Z,12.71
2018-03-14T17:51:11.791Z,12.62
2018-03-14T17:53:39.238Z,12.49
2018-03-14T17:56:07.249Z,12.39
2018-03-14T17:58:34.689Z,12.32
2018-03-14T18:01:02.328Z,12.27
2018-03-14T18:03:29.762Z,12.21
2018-03-14T18:05:57.228Z,12.16
2018-03-14T18:08:24.682Z,12.11
2018-03-14T18:10:52.175Z,12.10
2018-03-14T18:13:19.795Z,12.15
2018-03-14T18:18:21.678Z,12.17
2018-03-14T18:20:49.371Z,12.22
2018-03-14T18:23:16.904Z,12.23
2018-03-14T18:25:44.541Z,12.20
2018-03-14T18:28:11.989Z,12.17
2018-03-14T18:30:40.229Z,12.16
2018-03-14T18:33:07.703Z,12.11
2018-03-14T18:35:35.233Z,12.04
2018-03-14T18:38:03.163Z,11.93
2018-03-14T18:40:31.492Z,11.82
2018-03-14T18:42:58.888Z,11.76
2018-03-14T18:45:26.349Z,11.78
2018-03-14T18:47:54.434Z,11.63
2018-03-14T18:50:21.858Z,11.52
2018-03-14T18:52:49.245Z,11.41
2018-03-14T18:55:16.784Z,11.31
2018-03-14T18:57:44.383Z,11.22
2018-03-14T19:00:12.094Z,11.14
2018-03-14T19:02:40.421Z,11.06
2018-03-14T19:05:07.943Z,11.00
2018-03-14T19:07:35.393Z,10.95
2018-03-14T19:10:02.885Z,10.91
2018-03-14T19:12:30.321Z,10.90
2018-03-14T19:14:57.871Z,10.87
2018-03-14T19:17:25.334Z,10.83
2018-03-14T19:19:52.823Z,10.75
2018-03-14T19:22:20.280Z,10.66
2018-03-14T19:24:47.788Z,10.65
2018-03-14T19:27:15.374Z,10.57
2018-03-14T19:29:43.014Z,10.49
2018-03-14T19:32:10.889Z,10.45
2018-03-14T19:34:38.381Z,10.44
2018-03-14T19:37:05.806Z,10.45
2018-03-14T19:39:33.287Z,10.43
2018-03-14T19:42:00.732Z,10.47
2018-03-14T19:44:28.262Z,10.45
2018-03-14T19:46:55.776Z,10.44
2018-03-14T19:49:23.283Z,10.46
2018-03-14T19:51:50.668Z,10.52
2018-03-14T19:54:18.301Z,10.51
2018-03-14T19:56:45.812Z,10.55
2018-03-14T19:59:13.489Z,10.57
2018-03-14T20:01:41.599Z,10.52
2018-03-14T20:04:09.216Z,10.48
2018-03-14T20:06:37.207Z,10.47
2018-03-14T20:09:04.822Z,10.39
2018-03-14T20:11:32.286Z,10.30
2018-03-14T20:13:59.762Z,10.29
2018-03-14T20:16:27.255Z,10.30
2018-03-14T20:18:54.794Z,10.24
2018-03-14T20:21:22.220Z,10.21
2018-03-14T20:23:49.695Z,10.21
2018-03-14T20:26:17.226Z,10.18
2018-03-14T20:28:44.667Z,10.14
2018-03-14T20:31:12.264Z,10.16
2018-03-14T20:33:40.773Z,10.11
2018-03-14T20:36:08.948Z,10.08
2018-03-14T20:38:36.523Z,10.04
2018-03-14T20:41:04.142Z,10.01
2018-03-14T20:43:31.627Z,10.01
2018-03-14T20:45:59.181Z,10.01
2018-03-14T20:48:27.415Z,9.90
2018-03-14T20:50:54.856Z,9.89
2018-03-14T20:53:22.534Z,9.87
2018-03-14T20:55:50.133Z,9.88
2018-03-14T20:58:17.578Z,9.87
2018-03-14T21:00:45.554Z,9.83
2018-03-14T21:03:13.116Z,9.80
2018-03-14T21:05:40.552Z,9.77
2018-03-14T21:08:08.338Z,9.74
2018-03-14T21:10:35.782Z,9.69
2018-03-14T21:13:03.757Z,9.68
2018-03-14T21:15:31.156Z,9.67
2018-03-14T21:17:58.569Z,9.65
2018-03-14T21:20:26.501Z,9.58
2018-03-14T21:22:53.958Z,9.55
2018-03-14T21:25:21.394Z,9.55
2018-03-14T21:27:48.936Z,9.55
2018-03-14T21:30:16.454Z,9.49
2018-03-14T21:32:43.881Z,9.45
2018-03-14T21:35:11.302Z,9.45
2018-03-14T21:37:38.730Z,9.34
2018-03-14T21:40:06.185Z,9.31
2018-03-14T21:42:33.626Z,9.26
2018-03-14T21:45:01.098Z,9.24
2018-03-14T21:47:28.542Z,9.15
2018-03-14T21:49:55.927Z,9.08
2018-03-14T21:52:23.568Z,9.01
2018-03-14T21:54:51.005Z,8.96
2018-03-14T21:57:19.352Z,8.97
2018-03-14T21:59:46.805Z,8.99
2018-03-14T22:02:14.228Z,8.93
2018-03-14T22:04:41.695Z,8.88
2018-03-14T22:07:09.218Z,8.92
2018-03-14T22:09:36.732Z,8.98
2018-03-14T22:12:04.246Z,8.96
2018-03-14T22:14:31.820Z,8.93
2018-03-14T22:16:59.103Z,8.96
2018-03-14T22:19:26.831Z,8.99
2018-03-14T22:21:55.130Z,9.01
2018-03-14T22:24:22.676Z,8.93
2018-03-14T22:26:50.366Z,8.88
2018-03-14T22:29:17.812Z,8.85
2018-03-14T22:31:45.273Z,8.83
2018-03-14T22:34:12.741Z,8.76
2018-03-14T22:36:40.151Z,8.66
2018-03-14T22:39:07.588Z,8.64
2018-03-14T22:41:34.983Z,8.59
2018-03-14T22:44:02.430Z,8.39
2018-03-14T22:46:29.895Z,8.24
2018-03-14T22:48:57.284Z,8.31
2018-03-14T22:51:24.772Z,8.41
2018-03-14T22:53:52.202Z,8.38
2018-03-14T22:56:19.673Z,8.31
2018-03-14T22:58:47.129Z,8.24
2018-03-14T23:01:14.573Z,8.28
2018-03-14T23:03:42.164Z,8.28
2018-03-14T23:06:10.411Z,8.22
2018-03-14T23:08:38.024Z,8.21
2018-03-14T23:11:05.441Z,8.24
2018-03-14T23:13:32.937Z,8.24
2018-03-14T23:16:00.423Z,8.30
2018-03-14T23:18:27.924Z,8.27
2018-03-14T23:20:55.402Z,8.23
2018-03-14T23:23:22.908Z,8.25
2018-03-14T23:25:50.358Z,8.30
2018-03-14T23:28:17.770Z,8.30
2018-03-14T23:30:45.251Z,8.30
2018-03-14T23:33:13.234Z,8.29
2018-03-14T23:35:40.761Z,8.31
2018-03-14T23:38:08.312Z,8.30
2018-03-14T23:40:35.769Z,8.34
2018-03-14T23:43:03.235Z,8.38
2018-03-14T23:45:30.722Z,8.34
2018-03-14T23:47:58.122Z,8.31
2018-03-14T23:50:25.544Z,8.33
2018-03-14T23:52:52.999Z,8.30
2018-03-14T23:55:20.484Z,8.31
2018-03-14T23:57:48.067Z,8.32
